James Hamilton

Chief Scout - Hull City
19 Nov 2028
Sunday
Process

Personality

Adaptability (4) Ambition (1) Controversy (6) Loyalty (1) Pressure (18) Professionalism (11) Sportsmanship (12) Temperament (11)

Profile

Coaching Style Democratic
License Continental Pro
Determination 13
Man Management 7
Motivating 10
Discipline 7
Job Satisfaction
100%
Fatigue
0%
Role Chief Scout
Wage 68.3K p/w
Contract 14.03.2030

Performance

Behaviour Good
Training Effectiveness
31%
Player Development
65%
Injury Prevention
65%
Tactical Implementation
40%

Recent Events

Attended a recruitment meeting now
Recommended a transfer target now
Recommended a transfer target now
Recommended a transfer target now
Assessed a player now
Assessed a player now
Assessed a player now
Assessed a player now

Currently Monitoring

128
Player Club Status Ability Confidence Watched Last Observed Latest Vote
Igor Tyjon Barrow AFC Active 125 / 126 40% 3 18.11.2028 -
Lisandro Piñero Banfield Active 135 / 121 40% 3 18.11.2028 -
Ayyoub Bouaddi Stoke City Active 155 / 154 40% 2 17.11.2028 -
Sebastian Olderheim Stromsgodset Active 111 / 108 40% 2 17.11.2028 -
Santiago Segovia Rosario Central Active 104 / 128 40% 1 17.11.2028 -
Amin Nabizada Exeter City Active 109 / 129 40% 3 16.11.2028 -
Ryan McAidoo Oldham Athletic Active 134 / 138 40% 2 16.11.2028 -
Luke Brooke-Smith Chesterfield Active 105 / 117 40% 1 16.11.2028 -
Mateus Mané Burnley Active 143 / 155 40% 8 15.11.2028 -
Chris Rigg West Ham United Active 147 / 151 40% 2 15.11.2028 -
Harry Gray Harrogate Town Active 131 / 145 40% 1 15.11.2028 -
Matías Arias Vélez Active 124 / 115 40% 2 14.11.2028 -
Fletcher Boyd Accrington Stanley Active 111 / 114 40% 1 14.11.2028 -
Ryan Kavuma-McQueen Accrington Stanley Active 123 / 128 40% 2 13.11.2028 -
Luka Andrade Montevideo City Torque Active 104 / 112 40% 1 12.11.2028 -
Romelle Donovan Brentford Active 131 / 138 40% 1 11.11.2028 Needs More Info
Alex Verón Vélez Active 108 / 122 40% 2 09.11.2028 -
Valentino Huertas Morón Active 110 / 115 40% 2 09.11.2028 -
Ben Broggio Mansfield Town Active 114 / 120 40% 1 08.11.2028 -
Kevin Filling AIK Active 97 / 108 40% 1 08.11.2028 -
Robinio Vaz Modena Active 125 / 127 40% 1 07.11.2028 -
Joel van den Berg Bloemfontein Celtic Active 108 / 107 40% 1 06.11.2028 -
Ruben Ramos LA Galaxy Active 93 / 100 40% 3 11.08.2028 -
Augusto Bando Ascoli Active 111 / 117 40% 3 11.08.2028 -
Joachim Kayi Sanda Southampton Lost 124 / 129 72% 1 07.08.2028 Approve
Reyes Cleary Bromley Lost 123 / 123 72% 1 24.07.2028 -
Federico Matarán Giana Erminio Active 105 / 110 40% 3 12.06.2028 -
Daniel Banjaqui Benfica Active 119 / 125 40% 4 31.05.2028 -
Tobiáš Pališčák Zlin Active 97 / 111 40% 5 31.05.2028 -
Luka Vušković Tottenham Active 152 / 158 40% 1 30.05.2028 -
Jan Bürger Northampton Town Active 113 / 120 40% 8 29.05.2028 -
Olivier Leroux Mouscron Active 101 / 110 40% 8 29.05.2028 -
Jorthy Mokio ADO Den Haag Active 130 / 137 40% 4 29.05.2028 -
Bernardo Lima Porto Active 108 / 120 40% 8 28.05.2028 -
Josh Nichols Oldham Athletic Active 125 / 122 40% 5 28.05.2028 -
Kiani Inge Groningen Active 115 / 115 40% 7 26.05.2028 -
Giovanni Leoni Lincoln City Active 146 / 141 40% 5 25.05.2028 -
Andrey Ivlev Nizhniy Novgorod Active 106 / 117 40% 4 24.05.2028 -
Trey Nyoni Rotherham United Active 140 / 149 40% 3 24.05.2028 -
Ronan Kpakio AC Milan Active 118 / 131 40% 3 22.05.2028 -
Amine Boukamir Charleroi Active 106 / 115 40% 1 20.05.2028 -
Tyler Fletcher Rotherham United Active 114 / 112 40% 3 11.05.2028 -
Riquelme Thompson-Jones Accrington Stanley Active 103 / 119 40% 1 11.05.2028 -
Honest Ahanor Atalanta Active 133 / 141 40% 3 25.04.2028 -
Josh Acheampong Everton Active 136 / 140 40% 3 24.04.2028 -
Tobías Ramírez River Plate Active 133 / 137 40% 2 22.04.2028 -
Ayden Heaven Portsmouth Active 141 / 149 40% 2 15.04.2028 -
Miguel Figueiredo Benfica Active 112 / 124 40% 4 14.04.2028 -
Olivier Mambwa Young Boys Active 113 / 116 40% 2 19.03.2028 -
Matvey Bardachev Zenit Active 103 / 112 40% 1 12.03.2028 -
Nejc Viher NK Maribor Active 112 / 130 40% 1 12.03.2028 -
Bazoumana Touré Newcastle United Active 151 / 155 40% 3 24.01.2028 -
Gorka Gorosabel Real Sociedad Active 116 / 122 40% 1 24.01.2028 -
Toni Fruk Talleres Active 132 / 133 89% 1 01.01.2028 Approve
Mao Hosoya Santos Active 134 / 135 67% 1 01.01.2028 Approve
Julian Hall Real Salt Lake Active 96 / 120 40% 1 31.12.2027 -
Senny Mayulu Paris Saint-Germain Active 142 / 158 40% 2 30.12.2027 -
Eli Junior Kroupi Bournemouth Active 151 / 152 40% 3 29.12.2027 -
Sindre Walle Egeli Udinese Active 144 / 145 40% 3 29.12.2027 -
Dylan Cabral Arsenal Active 92 / 116 40% 1 27.12.2027 -
Matias Siltanen Malmo FF Active 116 / 138 40% 2 26.12.2027 -
Joel Medina Independiente Active 115 / 125 40% 1 26.12.2027 -
Ibrahim Fullah Charlton Athletic Active 128 / 129 40% 2 24.12.2027 -
Luca Williams-Barnett Walsall Active 115 / 124 40% 2 24.12.2027 -
Gianluca Prestianni Benfica Active 141 / 142 40% 1 22.12.2027 -
Victor Hernandez Santa Fe Active 130 / 116 40% 5 21.12.2027 -
Luighi Palmeiras Active 116 / 119 40% 1 21.12.2027 -
Shea Lacey Crystal Palace Lost 130 / 138 40% 1 18.12.2027 -
Nana Nuhu WAFA Active 97 / 93 40% 1 16.12.2027 -
Gabe Forsyth Colchester United Active 103 / 122 40% 2 14.12.2027 -
Pedro Baltika Active 132 / 138 40% 1 13.12.2027 -
Babis Kostoulas Oxford United Active 137 / 148 40% 1 13.12.2027 -
Archie Gray Southampton Active 155 / 161 40% 4 12.12.2027 -
Rio Ngumoha Plymouth Argyle Active 144 / 142 40% 1 12.12.2027 -
Tiago Pucciarelli IF Elfsborg Active 105 / 106 40% 2 11.12.2027 -
Jonny Shore New York City Active 105 / 97 40% 1 10.12.2027 -
Tahiel Peralta Racing Club Active 117 / 128 40% 1 10.12.2027 -
Pedro de la Vega Columbus Crew Active 133 / 134 95% 1 01.06.2027 Approve
Aaron Collins Milton Keynes Dons Active 122 / 111 40% 1 31.05.2027 -
Caleb Yirenkyi Coventry City Active 134 / 143 40% 6 30.05.2027 -
Zane Albarus Shrewsbury Town Active 95 / 104 40% 3 29.05.2027 -
Daniel Dennis Ikorodu City Active 91 / 101 40% 3 29.05.2027 -
Gonçalo Oliveira Benfica Active 110 / 121 40% 1 29.05.2027 -
Jenson Jones Walsall Active 101 / 96 40% 3 28.05.2027 -
Charlie Gray Fleetwood Town Active 86 / 89 40% 2 28.05.2027 -
Ezra Mayers West Ham United Active 117 / 118 40% 2 26.05.2027 -
Olaniyi Saheed Kwara United Active 100 / 94 40% 2 26.05.2027 -
Daniel Idoko Ikorodu City Active 86 / 90 40% 2 24.05.2027 -
Pedro Vian Seewald Dolomiti Bellunesi Active 90 / 98 40% 1 24.05.2027 -
Maldini Kacurri Grimsby Town Active 86 / 90 40% 3 21.05.2027 -
Sascha Britschgi AC Milan Active 127 / 123 40% 3 21.05.2027 -
Tommaso Cecotti Carpi Active 93 / 97 40% 2 21.05.2027 -
Konta Ismaily Active 86 / 94 40% 2 17.05.2027 -
Hosea Michael Remo Stars Active 88 / 104 40% 1 15.05.2027 -
Kamaldeen Atiemo Wa All Stars Active 98 / 105 40% 2 11.05.2027 -
Enzo Koffi Olympique de Marseille Active 117 / 111 40% 1 08.05.2027 -
Lucas Bergvall Tottenham Active 140 / 154 40% 3 07.05.2027 -
Kazunari Kita Real Sociedad Active 95 / 105 40% 1 06.05.2027 -
Riley Owen Stevenage Active 101 / 106 40% 3 04.05.2027 -
Leandro Martins Benfica Active 89 / 93 40% 3 01.05.2027 -
Afriyie Sulemana WAFA Active 92 / 102 40% 2 23.04.2027 -
Samuele di Benedetto Twente Active 115 / 121 40% 2 18.04.2027 -
Andrea Bertoncini Triestina Active 88 / 101 40% 1 18.04.2027 -
Bradley de Jesus Nacional Active 93 / 94 40% 2 15.04.2027 -
Ahmed Akinyele Remo Stars Active 105 / 98 40% 1 14.04.2027 -
Alessandro Zoboletti Sambenedettese Active 93 / 89 40% 1 09.04.2027 -
James Dornelly Peterborough United Active 101 / 105 40% 3 06.04.2027 -
Tiago Freitas Benfica Active 106 / 121 40% 1 06.04.2027 -
Sampson Dweh Mallorca Active 133 / 134 66% 1 01.01.2027 Approve
Morgan Guilavogui Real Salt Lake Active 117 / 115 40% 1 31.12.2026 -
Wilson Isidor Sunderland Active 140 / 143 40% 1 31.12.2026 -
Reece Braithwaite Bloemfontein Celtic Active 93 / 113 40% 3 30.12.2026 -
Reed Baker-Whiting Nashville SC Active 106 / 105 40% 2 29.12.2026 -
Diogo Monteiro Tondela Active 104 / 108 40% 1 28.12.2026 -
Dean Jali Platinum Stars Active 94 / 96 40% 1 28.12.2026 -
Simphiwe Selepe Orlando Pirates Active 98 / 120 40% 4 20.12.2026 -
Emmanuel Mathias Ikorodu City Active 91 / 110 40% 1 16.12.2026 -
Louis Leroux FC Nantes Active 121 / 133 40% 1 11.12.2026 -
Philippe Ndinga Philadelphia Union Active 103 / 113 40% 2 20.11.2026 -
Pedro Bravo FC Midtjylland Active 130 / 116 40% 1 18.11.2026 -
Morrison Agyemang Charlotte Football Club Active 109 / 117 40% 1 18.11.2026 -
Mbekezeli Mbokazi Chicago Fire Active 126 / 132 40% 1 13.10.2026 -
Joel Ezra Enyimba Active 86 / 85 40% 1 13.10.2026 -
Reuell Walters Luton Town Active 101 / 120 40% 1 08.10.2026 -
Cemran Dansin Orlando Pirates Active 115 / 104 40% 2 06.10.2026 -
Federico Chiesa Liverpool Active 158 / 151 40% 1 31.08.2026 -
Nathan Ordaz DC United Active 106 / 104 40% 1 31.08.2026 -
Jacob Bartlett Sporting Kansas City Active 96 / 105 40% 1 18.08.2026 -